sensor_id;sensor_type;location;lat;lon;timestamp;P1;durP1;ratioP1;P2;durP2;ratioP2
9270;SDS011;4673;53.458;9.940;2022-10-01T00:01:39;3.00;;;3.00;;
9270;SDS011;4673;53.458;9.940;2022-10-01T00:04:05;2.87;;;2.87;;
9270;SDS011;4673;53.458;9.940;2022-10-01T00:06:30;2.47;;;2.47;;
9270;SDS011;4673;53.458;9.940;2022-10-01T00:08:56;2.40;;;2.40;;
9270;SDS011;4673;53.458;9.940;2022-10-01T00:11:23;3.00;;;3.00;;
9270;SDS011;4673;53.458;9.940;2022-10-01T00:13:49;3.17;;;3.17;;
9270;SDS011;4673;53.458;9.940;2022-10-01T00:16:17;2.90;;;2.90;;
9270;SDS011;4673;53.458;9.940;2022-10-01T00:18:48;2.70;;;2.70;;
9270;SDS011;4673;53.458;9.940;2022-10-01T00:21:16;3.07;;;3.07;;
9270;SDS011;4673;53.458;9.940;2022-10-01T00:23:43;2.93;;;2.93;;
9270;SDS011;4673;53.458;9.940;2022-10-01T00:26:28;2.83;;;2.83;;
9270;SDS011;4673;53.458;9.940;2022-10-01T00:28:56;2.77;;;2.77;;
9270;SDS011;4673;53.458;9.940;2022-10-01T00:31:23;2.83;;;2.83;;
9270;SDS011;4673;53.458;9.940;2022-10-01T00:33:53;2.90;;;2.90;;
9270;SDS011;4673;53.458;9.940;2022-10-01T00:36:20;2.87;;;2.87;;
9270;SDS011;4673;53.458;9.940;2022-10-01T00:38:46;2.97;;;2.97;;
9270;SDS011;4673;53.458;9.940;2022-10-01T00:41:12;2.87;;;2.87;;
9270;SDS011;4673;53.458;9.940;2022-10-01T00:43:46;3.23;;;3.23;;
9270;SDS011;4673;53.458;9.940;2022-10-01T00:46:18;2.60;;;2.60;;
9270;SDS011;4673;53.458;9.940;2022-10-01T00:51:44;3.00;;;3.00;;
9270;SDS011;4673;53.458;9.940;2022-10-01T00:54:14;2.43;;;2.43;;
9270;SDS011;4673;53.458;9.940;2022-10-01T00:56:43;2.83;;;2.83;;
9270;SDS011;4673;53.458;9.940;2022-10-01T00:59:09;3.13;;;3.13;;
9270;SDS011;4673;53.458;9.940;2022-10-01T01:01:36;2.50;;;2.50;;
9270;SDS011;4673;53.458;9.940;2022-10-01T01:04:02;3.20;;;3.20;;
9270;SDS011;4673;53.458;9.940;2022-10-01T01:06:28;3.27;;;3.27;;
9270;SDS011;4673;53.458;9.940;2022-10-01T01:08:54;3.23;;;3.23;;
9270;SDS011;4673;53.458;9.940;2022-10-01T01:11:23;3.03;;;3.03;;
9270;SDS011;4673;53.458;9.940;2022-10-01T01:17:32;2.60;;;2.60;;
9270;SDS011;4673;53.458;9.940;2022-10-01T01:20:17;2.70;;;2.70;;
9270;SDS011;4673;53.458;9.940;2022-10-01T01:22:56;3.13;;;3.13;;
9270;SDS011;4673;53.458;9.940;2022-10-01T01:26:20;2.97;;;2.97;;
9270;SDS011;4673;53.458;9.940;2022-10-01T01:28:39;2.63;;;2.63;;
9270;SDS011;4673;53.458;9.940;2022-10-01T01:31:11;2.60;;;2.60;;
9270;SDS011;4673;53.458;9.940;2022-10-01T01:33:40;2.77;;;2.77;;
9270;SDS011;4673;53.458;9.940;2022-10-01T01:36:11;2.63;;;2.63;;
9270;SDS011;4673;53.458;9.940;2022-10-01T01:38:42;2.93;;;2.93;;
9270;SDS011;4673;53.458;9.940;2022-10-01T01:41:16;3.10;;;3.10;;
9270;SDS011;4673;53.458;9.940;2022-10-01T01:43:44;3.20;;;3.20;;
9270;SDS011;4673;53.458;9.940;2022-10-01T01:46:13;3.03;;;3.03;;
9270;SDS011;4673;53.458;9.940;2022-10-01T01:48:41;2.47;;;2.47;;
9270;SDS011;4673;53.458;9.940;2022-10-01T01:51:13;3.10;;;3.10;;
9270;SDS011;4673;53.458;9.940;2022-10-01T01:53:46;2.77;;;2.77;;
9270;SDS011;4673;53.458;9.940;2022-10-01T01:56:12;2.37;;;2.37;;
9270;SDS011;4673;53.458;9.940;2022-10-01T01:58:38;2.50;;;2.50;;
9270;SDS011;4673;53.458;9.940;2022-10-01T02:01:04;2.60;;;2.60;;
9270;SDS011;4673;53.458;9.940;2022-10-01T02:03:29;2.77;;;2.77;;
9270;SDS011;4673;53.458;9.940;2022-10-01T02:08:56;2.20;;;2.20;;
9270;SDS011;4673;53.458;9.940;2022-10-01T02:11:33;2.47;;;2.47;;
9270;SDS011;4673;53.458;9.940;2022-10-01T02:14:15;2.33;;;2.33;;
9270;SDS011;4673;53.458;9.940;2022-10-01T02:16:57;2.37;;;2.37;;
9270;SDS011;4673;53.458;9.940;2022-10-01T02:19:39;2.07;;;2.07;;
9270;SDS011;4673;53.458;9.940;2022-10-01T02:22:10;2.73;;;2.73;;
9270;SDS011;4673;53.458;9.940;2022-10-01T02:24:42;2.60;;;2.60;;
9270;SDS011;4673;53.458;9.940;2022-10-01T02:27:17;2.40;;;2.40;;
9270;SDS011;4673;53.458;9.940;2022-10-01T02:29:57;2.30;;;2.30;;
9270;SDS011;4673;53.458;9.940;2022-10-01T02:32:26;2.30;;;2.30;;
9270;SDS011;4673;53.458;9.940;2022-10-01T02:34:54;2.23;;;2.23;;
9270;SDS011;4673;53.458;9.940;2022-10-01T02:37:22;1.90;;;1.90;;
9270;SDS011;4673;53.458;9.940;2022-10-01T02:39:49;2.23;;;2.23;;
9270;SDS011;4673;53.458;9.940;2022-10-01T02:42:16;2.60;;;2.60;;
9270;SDS011;4673;53.458;9.940;2022-10-01T02:44:44;2.13;;;2.13;;
9270;SDS011;4673;53.458;9.940;2022-10-01T02:50:00;2.70;;;2.70;;
9270;SDS011;4673;53.458;9.940;2022-10-01T02:52:31;3.50;;;3.50;;
9270;SDS011;4673;53.458;9.940;2022-10-01T02:57:36;2.50;;;2.50;;
9270;SDS011;4673;53.458;9.940;2022-10-01T03:00:07;2.90;;;2.90;;
9270;SDS011;4673;53.458;9.940;2022-10-01T03:02:37;2.40;;;2.40;;
9270;SDS011;4673;53.458;9.940;2022-10-01T03:05:03;2.97;;;2.97;;
9270;SDS011;4673;53.458;9.940;2022-10-01T03:07:30;2.07;;;2.07;;
9270;SDS011;4673;53.458;9.940;2022-10-01T03:09:58;2.23;;;2.23;;
9270;SDS011;4673;53.458;9.940;2022-10-01T03:12:24;1.93;;;1.93;;
9270;SDS011;4673;53.458;9.940;2022-10-01T03:14:49;2.40;;;2.40;;
9270;SDS011;4673;53.458;9.940;2022-10-01T03:17:15;2.50;;;2.50;;
9270;SDS011;4673;53.458;9.940;2022-10-01T03:19:44;2.50;;;2.50;;
9270;SDS011;4673;53.458;9.940;2022-10-01T03:22:11;2.50;;;2.50;;
9270;SDS011;4673;53.458;9.940;2022-10-01T03:24:38;2.10;;;2.10;;
9270;SDS011;4673;53.458;9.940;2022-10-01T03:27:04;2.20;;;2.20;;
9270;SDS011;4673;53.458;9.940;2022-10-01T03:29:29;2.33;;;2.33;;
9270;SDS011;4673;53.458;9.940;2022-10-01T03:31:55;2.70;;;2.70;;
9270;SDS011;4673;53.458;9.940;2022-10-01T03:34:21;2.20;;;2.20;;
9270;SDS011;4673;53.458;9.940;2022-10-01T03:36:47;2.50;;;2.50;;
9270;SDS011;4673;53.458;9.940;2022-10-01T03:39:13;2.40;;;2.40;;
9270;SDS011;4673;53.458;9.940;2022-10-01T03:41:39;2.40;;;2.40;;
9270;SDS011;4673;53.458;9.940;2022-10-01T03:44:04;2.47;;;2.47;;
9270;SDS011;4673;53.458;9.940;2022-10-01T03:46:30;2.30;;;2.30;;
9270;SDS011;4673;53.458;9.940;2022-10-01T03:48:56;2.40;;;2.40;;
9270;SDS011;4673;53.458;9.940;2022-10-01T03:51:23;2.70;;;2.70;;
9270;SDS011;4673;53.458;9.940;2022-10-01T03:53:49;2.40;;;2.40;;
9270;SDS011;4673;53.458;9.940;2022-10-01T03:56:15;2.63;;;2.63;;
9270;SDS011;4673;53.458;9.940;2022-10-01T03:58:41;2.50;;;2.50;;
9270;SDS011;4673;53.458;9.940;2022-10-01T04:01:06;2.70;;;2.70;;
9270;SDS011;4673;53.458;9.940;2022-10-01T04:03:32;2.10;;;2.10;;
9270;SDS011;4673;53.458;9.940;2022-10-01T04:05:58;2.80;;;2.80;;
9270;SDS011;4673;53.458;9.940;2022-10-01T04:08:23;3.53;;;3.53;;
9270;SDS011;4673;53.458;9.940;2022-10-01T04:10:49;3.30;;;3.30;;
9270;SDS011;4673;53.458;9.940;2022-10-01T04:13:15;2.63;;;2.63;;
9270;SDS011;4673;53.458;9.940;2022-10-01T04:15:41;2.67;;;2.67;;
9270;SDS011;4673;53.458;9.940;2022-10-01T04:18:06;2.70;;;2.70;;
9270;SDS011;4673;53.458;9.940;2022-10-01T04:20:33;2.60;;;2.60;;
9270;SDS011;4673;53.458;9.940;2022-10-01T04:23:00;3.00;;;3.00;;
9270;SDS011;4673;53.458;9.940;2022-10-01T04:25:26;2.70;;;2.70;;
9270;SDS011;4673;53.458;9.940;2022-10-01T04:28:02;3.30;;;3.30;;
9270;SDS011;4673;53.458;9.940;2022-10-01T04:30:30;2.87;;;2.87;;
9270;SDS011;4673;53.458;9.940;2022-10-01T04:32:57;2.37;;;2.37;;
9270;SDS011;4673;53.458;9.940;2022-10-01T04:35:24;3.10;;;3.10;;
9270;SDS011;4673;53.458;9.940;2022-10-01T04:37:57;3.27;;;3.27;;
9270;SDS011;4673;53.458;9.940;2022-10-01T04:40:33;3.17;;;3.17;;
9270;SDS011;4673;53.458;9.940;2022-10-01T04:43:00;3.27;;;3.27;;
9270;SDS011;4673;53.458;9.940;2022-10-01T04:45:27;3.13;;;3.13;;
9270;SDS011;4673;53.458;9.940;2022-10-01T04:47:53;3.23;;;3.23;;
9270;SDS011;4673;53.458;9.940;2022-10-01T04:50:20;3.10;;;3.10;;
9270;SDS011;4673;53.458;9.940;2022-10-01T04:52:47;3.70;;;3.70;;
9270;SDS011;4673;53.458;9.940;2022-10-01T04:55:13;3.20;;;3.20;;
9270;SDS011;4673;53.458;9.940;2022-10-01T04:57:39;3.40;;;3.40;;
9270;SDS011;4673;53.458;9.940;2022-10-01T05:00:06;3.13;;;3.13;;
9270;SDS011;4673;53.458;9.940;2022-10-01T05:02:34;3.27;;;3.27;;
9270;SDS011;4673;53.458;9.940;2022-10-01T05:05:04;3.63;;;3.63;;
9270;SDS011;4673;53.458;9.940;2022-10-01T05:07:31;3.77;;;3.77;;
9270;SDS011;4673;53.458;9.940;2022-10-01T05:09:58;3.40;;;3.40;;
9270;SDS011;4673;53.458;9.940;2022-10-01T05:12:24;3.10;;;3.10;;
9270;SDS011;4673;53.458;9.940;2022-10-01T05:14:51;3.70;;;3.70;;
9270;SDS011;4673;53.458;9.940;2022-10-01T05:17:17;3.00;;;3.00;;
9270;SDS011;4673;53.458;9.940;2022-10-01T05:19:43;3.53;;;3.53;;
9270;SDS011;4673;53.458;9.940;2022-10-01T05:22:09;4.00;;;4.00;;
9270;SDS011;4673;53.458;9.940;2022-10-01T05:24:35;4.00;;;4.00;;
9270;SDS011;4673;53.458;9.940;2022-10-01T05:27:00;3.60;;;3.60;;
9270;SDS011;4673;53.458;9.940;2022-10-01T05:29:26;3.23;;;3.23;;
9270;SDS011;4673;53.458;9.940;2022-10-01T05:31:51;4.07;;;4.07;;
9270;SDS011;4673;53.458;9.940;2022-10-01T05:34:17;3.70;;;3.70;;
9270;SDS011;4673;53.458;9.940;2022-10-01T05:36:42;3.60;;;3.60;;
9270;SDS011;4673;53.458;9.940;2022-10-01T05:39:08;3.53;;;3.53;;
9270;SDS011;4673;53.458;9.940;2022-10-01T05:41:34;3.50;;;3.50;;
9270;SDS011;4673;53.458;9.940;2022-10-01T05:43:59;3.40;;;3.40;;
9270;SDS011;4673;53.458;9.940;2022-10-01T05:46:26;3.30;;;3.30;;
9270;SDS011;4673;53.458;9.940;2022-10-01T05:48:52;3.40;;;3.40;;
9270;SDS011;4673;53.458;9.940;2022-10-01T05:51:19;4.33;;;4.33;;
9270;SDS011;4673;53.458;9.940;2022-10-01T05:53:44;3.47;;;3.47;;
9270;SDS011;4673;53.458;9.940;2022-10-01T05:56:12;3.37;;;3.37;;
9270;SDS011;4673;53.458;9.940;2022-10-01T05:58:39;3.90;;;3.90;;
9270;SDS011;4673;53.458;9.940;2022-10-01T06:01:04;3.60;;;3.60;;
9270;SDS011;4673;53.458;9.940;2022-10-01T06:03:30;4.20;;;4.20;;
9270;SDS011;4673;53.458;9.940;2022-10-01T06:05:56;3.93;;;3.93;;
9270;SDS011;4673;53.458;9.940;2022-10-01T06:08:21;3.77;;;3.77;;
9270;SDS011;4673;53.458;9.940;2022-10-01T06:10:47;3.80;;;3.80;;
9270;SDS011;4673;53.458;9.940;2022-10-01T06:13:13;3.53;;;3.53;;
9270;SDS011;4673;53.458;9.940;2022-10-01T06:15:42;3.47;;;3.47;;
9270;SDS011;4673;53.458;9.940;2022-10-01T06:18:10;3.47;;;3.47;;
9270;SDS011;4673;53.458;9.940;2022-10-01T06:20:37;3.73;;;3.73;;
9270;SDS011;4673;53.458;9.940;2022-10-01T06:23:05;3.67;;;3.67;;
9270;SDS011;4673;53.458;9.940;2022-10-01T06:25:35;4.57;;;4.57;;
9270;SDS011;4673;53.458;9.940;2022-10-01T06:28:02;3.40;;;3.40;;
9270;SDS011;4673;53.458;9.940;2022-10-01T06:30:30;3.30;;;3.30;;
9270;SDS011;4673;53.458;9.940;2022-10-01T06:32:59;3.40;;;3.40;;
9270;SDS011;4673;53.458;9.940;2022-10-01T06:35:39;3.33;;;3.33;;
9270;SDS011;4673;53.458;9.940;2022-10-01T06:38:06;4.70;;;4.70;;
9270;SDS011;4673;53.458;9.940;2022-10-01T06:40:33;3.43;;;3.43;;
9270;SDS011;4673;53.458;9.940;2022-10-01T06:43:00;3.70;;;3.70;;
9270;SDS011;4673;53.458;9.940;2022-10-01T06:45:26;3.70;;;3.70;;
9270;SDS011;4673;53.458;9.940;2022-10-01T06:47:53;3.90;;;3.90;;
9270;SDS011;4673;53.458;9.940;2022-10-01T06:50:21;4.00;;;4.00;;
9270;SDS011;4673;53.458;9.940;2022-10-01T06:52:48;4.00;;;4.00;;
9270;SDS011;4673;53.458;9.940;2022-10-01T06:55:15;3.37;;;3.37;;
9270;SDS011;4673;53.458;9.940;2022-10-01T06:57:41;3.20;;;3.20;;
9270;SDS011;4673;53.458;9.940;2022-10-01T07:00:07;3.80;;;3.80;;
9270;SDS011;4673;53.458;9.940;2022-10-01T07:02:33;3.70;;;3.70;;
9270;SDS011;4673;53.458;9.940;2022-10-01T07:04:59;3.97;;;3.97;;
9270;SDS011;4673;53.458;9.940;2022-10-01T07:07:32;3.27;;;3.27;;
9270;SDS011;4673;53.458;9.940;2022-10-01T07:10:02;3.03;;;3.03;;
9270;SDS011;4673;53.458;9.940;2022-10-01T07:12:30;3.80;;;3.80;;
9270;SDS011;4673;53.458;9.940;2022-10-01T07:14:56;3.30;;;3.30;;
9270;SDS011;4673;53.458;9.940;2022-10-01T07:17:22;3.67;;;3.67;;
9270;SDS011;4673;53.458;9.940;2022-10-01T07:19:48;3.53;;;3.53;;
9270;SDS011;4673;53.458;9.940;2022-10-01T07:22:13;3.67;;;3.67;;
9270;SDS011;4673;53.458;9.940;2022-10-01T07:24:39;2.90;;;2.90;;
9270;SDS011;4673;53.458;9.940;2022-10-01T07:27:05;3.53;;;3.53;;
9270;SDS011;4673;53.458;9.940;2022-10-01T07:29:31;3.20;;;3.20;;
9270;SDS011;4673;53.458;9.940;2022-10-01T07:32:00;3.27;;;3.27;;
9270;SDS011;4673;53.458;9.940;2022-10-01T07:34:28;4.20;;;4.20;;
9270;SDS011;4673;53.458;9.940;2022-10-01T07:36:55;3.60;;;3.60;;
9270;SDS011;4673;53.458;9.940;2022-10-01T07:39:23;3.80;;;3.80;;
9270;SDS011;4673;53.458;9.940;2022-10-01T07:41:52;3.33;;;3.33;;
9270;SDS011;4673;53.458;9.940;2022-10-01T07:44:20;3.57;;;3.57;;
9270;SDS011;4673;53.458;9.940;2022-10-01T07:46:46;3.80;;;3.80;;
9270;SDS011;4673;53.458;9.940;2022-10-01T07:49:13;3.13;;;3.13;;
9270;SDS011;4673;53.458;9.940;2022-10-01T07:51:40;2.93;;;2.93;;
9270;SDS011;4673;53.458;9.940;2022-10-01T07:54:09;3.27;;;3.27;;
9270;SDS011;4673;53.458;9.940;2022-10-01T07:56:35;3.50;;;3.50;;
9270;SDS011;4673;53.458;9.940;2022-10-01T07:59:08;3.30;;;3.30;;
9270;SDS011;4673;53.458;9.940;2022-10-01T08:01:35;3.63;;;3.63;;
9270;SDS011;4673;53.458;9.940;2022-10-01T08:04:01;3.03;;;3.03;;
9270;SDS011;4673;53.458;9.940;2022-10-01T08:06:48;2.77;;;2.77;;
9270;SDS011;4673;53.458;9.940;2022-10-01T08:09:23;3.30;;;3.30;;
9270;SDS011;4673;53.458;9.940;2022-10-01T08:11:54;2.70;;;2.70;;
9270;SDS011;4673;53.458;9.940;2022-10-01T08:14:28;2.80;;;2.80;;
9270;SDS011;4673;53.458;9.940;2022-10-01T08:17:03;2.60;;;2.60;;
9270;SDS011;4673;53.458;9.940;2022-10-01T08:19:29;2.73;;;2.73;;
9270;SDS011;4673;53.458;9.940;2022-10-01T08:21:58;2.63;;;2.63;;
9270;SDS011;4673;53.458;9.940;2022-10-01T08:24:24;2.30;;;2.30;;
9270;SDS011;4673;53.458;9.940;2022-10-01T08:26:51;2.40;;;2.40;;
9270;SDS011;4673;53.458;9.940;2022-10-01T08:29:23;2.20;;;2.20;;
9270;SDS011;4673;53.458;9.940;2022-10-01T08:31:48;2.40;;;2.40;;
9270;SDS011;4673;53.458;9.940;2022-10-01T08:34:14;2.60;;;2.60;;
9270;SDS011;4673;53.458;9.940;2022-10-01T08:36:48;2.30;;;2.30;;
9270;SDS011;4673;53.458;9.940;2022-10-01T08:39:15;2.27;;;2.27;;
9270;SDS011;4673;53.458;9.940;2022-10-01T08:42:04;2.63;;;2.63;;
9270;SDS011;4673;53.458;9.940;2022-10-01T08:44:46;2.20;;;2.20;;
9270;SDS011;4673;53.458;9.940;2022-10-01T08:47:25;2.20;;;2.20;;
9270;SDS011;4673;53.458;9.940;2022-10-01T08:50:03;2.37;;;2.37;;
9270;SDS011;4673;53.458;9.940;2022-10-01T08:52:41;2.43;;;2.43;;
9270;SDS011;4673;53.458;9.940;2022-10-01T08:55:25;2.73;;;2.73;;
9270;SDS011;4673;53.458;9.940;2022-10-01T08:58:10;2.53;;;2.53;;
9270;SDS011;4673;53.458;9.940;2022-10-01T09:00:40;2.87;;;2.87;;
9270;SDS011;4673;53.458;9.940;2022-10-01T09:03:12;4.20;;;4.20;;
9270;SDS011;4673;53.458;9.940;2022-10-01T09:05:55;2.67;;;2.67;;
9270;SDS011;4673;53.458;9.940;2022-10-01T09:11:22;2.80;;;2.80;;
9270;SDS011;4673;53.458;9.940;2022-10-01T09:24:35;3.07;;;3.07;;
9270;SDS011;4673;53.458;9.940;2022-10-01T09:27:13;3.17;;;3.17;;
9270;SDS011;4673;53.458;9.940;2022-10-01T09:29:47;3.37;;;3.37;;
9270;SDS011;4673;53.458;9.940;2022-10-01T09:32:20;3.80;;;3.80;;
9270;SDS011;4673;53.458;9.940;2022-10-01T09:34:49;3.13;;;3.13;;
9270;SDS011;4673;53.458;9.940;2022-10-01T09:37:35;4.33;;;4.33;;
9270;SDS011;4673;53.458;9.940;2022-10-01T09:40:37;4.13;;;4.13;;
9270;SDS011;4673;53.458;9.940;2022-10-01T09:43:18;4.43;;;4.43;;
9270;SDS011;4673;53.458;9.940;2022-10-01T09:45:47;4.70;;;4.70;;
9270;SDS011;4673;53.458;9.940;2022-10-01T09:48:16;4.70;;;4.70;;
9270;SDS011;4673;53.458;9.940;2022-10-01T09:50:45;4.90;;;4.90;;
9270;SDS011;4673;53.458;9.940;2022-10-01T09:53:19;4.90;;;4.90;;
9270;SDS011;4673;53.458;9.940;2022-10-01T09:55:53;4.60;;;4.60;;
9270;SDS011;4673;53.458;9.940;2022-10-01T09:58:23;5.87;;;5.87;;
9270;SDS011;4673;53.458;9.940;2022-10-01T10:00:55;5.57;;;5.57;;
9270;SDS011;4673;53.458;9.940;2022-10-01T10:03:30;5.20;;;5.20;;
9270;SDS011;4673;53.458;9.940;2022-10-01T10:05:56;4.80;;;4.80;;
9270;SDS011;4673;53.458;9.940;2022-10-01T10:08:30;4.73;;;4.73;;
9270;SDS011;4673;53.458;9.940;2022-10-01T10:10:59;4.30;;;4.30;;
9270;SDS011;4673;53.458;9.940;2022-10-01T10:13:41;4.97;;;4.97;;
9270;SDS011;4673;53.458;9.940;2022-10-01T10:16:17;4.10;;;4.10;;
9270;SDS011;4673;53.458;9.940;2022-10-01T10:18:48;3.00;;;3.00;;
9270;SDS011;4673;53.458;9.940;2022-10-01T10:21:26;2.97;;;2.97;;
9270;SDS011;4673;53.458;9.940;2022-10-01T10:24:03;2.50;;;2.50;;
9270;SDS011;4673;53.458;9.940;2022-10-01T10:26:34;2.97;;;2.97;;
9270;SDS011;4673;53.458;9.940;2022-10-01T10:29:03;2.73;;;2.73;;
9270;SDS011;4673;53.458;9.940;2022-10-01T10:31:41;2.40;;;2.40;;
9270;SDS011;4673;53.458;9.940;2022-10-01T10:36:37;3.25;;;3.25;;
9270;SDS011;4673;53.458;9.940;2022-10-01T10:39:04;3.60;;;3.60;;
9270;SDS011;4673;53.458;9.940;2022-10-01T10:41:34;2.80;;;2.80;;
9270;SDS011;4673;53.458;9.940;2022-10-01T10:44:05;2.78;;;2.78;;
9270;SDS011;4673;53.458;9.940;2022-10-01T10:46:33;2.53;;;2.53;;
9270;SDS011;4673;53.458;9.940;2022-10-01T10:49:24;2.72;;;2.72;;
9270;SDS011;4673;53.458;9.940;2022-10-01T10:51:54;2.80;;;2.80;;
9270;SDS011;4673;53.458;9.940;2022-10-01T10:54:31;3.35;;;3.35;;
9270;SDS011;4673;53.458;9.940;2022-10-01T10:57:09;2.55;;;2.55;;
9270;SDS011;4673;53.458;9.940;2022-10-01T10:59:36;3.42;;;3.42;;
9270;SDS011;4673;53.458;9.940;2022-10-01T11:02:03;2.92;;;2.92;;
9270;SDS011;4673;53.458;9.940;2022-10-01T11:04:41;2.63;;;2.63;;
9270;SDS011;4673;53.458;9.940;2022-10-01T11:07:09;3.08;;;3.08;;
9270;SDS011;4673;53.458;9.940;2022-10-01T11:09:43;3.05;;;3.05;;
9270;SDS011;4673;53.458;9.940;2022-10-01T11:12:33;3.28;;;3.28;;
9270;SDS011;4673;53.458;9.940;2022-10-01T11:18:09;3.60;;;3.60;;
9270;SDS011;4673;53.458;9.940;2022-10-01T11:26:25;3.60;;;3.60;;
9270;SDS011;4673;53.458;9.940;2022-10-01T11:34:53;3.60;;;3.60;;
9270;SDS011;4673;53.458;9.940;2022-10-01T11:42:52;3.42;;;3.42;;
9270;SDS011;4673;53.458;9.940;2022-10-01T11:45:25;3.97;;;3.97;;
9270;SDS011;4673;53.458;9.940;2022-10-01T11:51:28;2.63;;;2.63;;
9270;SDS011;4673;53.458;9.940;2022-10-01T11:53:59;2.75;;;2.75;;
9270;SDS011;4673;53.458;9.940;2022-10-01T11:56:28;2.53;;;2.53;;
9270;SDS011;4673;53.458;9.940;2022-10-01T11:59:49;2.75;;;2.75;;
9270;SDS011;4673;53.458;9.940;2022-10-01T12:04:58;2.22;;;2.22;;
9270;SDS011;4673;53.458;9.940;2022-10-01T12:13:21;2.45;;;2.45;;
9270;SDS011;4673;53.458;9.940;2022-10-01T12:18:24;2.22;;;2.22;;
9270;SDS011;4673;53.458;9.940;2022-10-01T12:20:56;2.08;;;2.08;;
9270;SDS011;4673;53.458;9.940;2022-10-01T12:23:26;1.73;;;1.73;;
9270;SDS011;4673;53.458;9.940;2022-10-01T12:26:07;2.28;;;2.28;;
9270;SDS011;4673;53.458;9.940;2022-10-01T12:28:53;2.30;;;2.30;;
9270;SDS011;4673;53.458;9.940;2022-10-01T12:31:28;1.73;;;1.73;;
9270;SDS011;4673;53.458;9.940;2022-10-01T12:34:01;1.63;;;1.63;;
9270;SDS011;4673;53.458;9.940;2022-10-01T12:36:46;2.55;;;2.55;;
9270;SDS011;4673;53.458;9.940;2022-10-01T12:39:26;1.67;;;1.67;;
9270;SDS011;4673;53.458;9.940;2022-10-01T12:42:11;1.92;;;1.92;;
9270;SDS011;4673;53.458;9.940;2022-10-01T12:44:58;2.20;;;2.20;;
9270;SDS011;4673;53.458;9.940;2022-10-01T12:53:07;2.03;;;2.03;;
9270;SDS011;4673;53.458;9.940;2022-10-01T12:55:53;1.73;;;1.73;;
9270;SDS011;4673;53.458;9.940;2022-10-01T13:15:12;1.58;;;1.58;;
9270;SDS011;4673;53.458;9.940;2022-10-01T13:17:53;1.10;;;1.10;;
9270;SDS011;4673;53.458;9.940;2022-10-01T13:20:33;1.35;;;1.35;;
9270;SDS011;4673;53.458;9.940;2022-10-01T13:26:01;1.67;;;1.67;;
9270;SDS011;4673;53.458;9.940;2022-10-01T13:28:55;1.33;;;1.33;;
9270;SDS011;4673;53.458;9.940;2022-10-01T13:31:59;1.10;;;1.10;;
9270;SDS011;4673;53.458;9.940;2022-10-01T13:34:39;0.73;;;0.73;;
9270;SDS011;4673;53.458;9.940;2022-10-01T13:39:41;0.90;;;0.90;;
9270;SDS011;4673;53.458;9.940;2022-10-01T13:42:42;0.83;;;0.83;;
9270;SDS011;4673;53.458;9.940;2022-10-01T13:45:38;3.87;;;3.87;;
9270;SDS011;4673;53.458;9.940;2022-10-01T13:50:35;2.43;;;2.43;;
9270;SDS011;4673;53.458;9.940;2022-10-01T13:53:03;2.43;;;2.43;;
9270;SDS011;4673;53.458;9.940;2022-10-01T13:55:49;3.60;;;3.60;;
9270;SDS011;4673;53.458;9.940;2022-10-01T13:58:31;3.30;;;3.30;;
9270;SDS011;4673;53.458;9.940;2022-10-01T14:01:00;1.60;;;1.60;;
9270;SDS011;4673;53.458;9.940;2022-10-01T14:06:23;4.17;;;4.17;;
9270;SDS011;4673;53.458;9.940;2022-10-01T14:08:59;1.20;;;1.20;;
9270;SDS011;4673;53.458;9.940;2022-10-01T14:11:31;2.00;;;2.00;;
9270;SDS011;4673;53.458;9.940;2022-10-01T14:14:19;2.50;;;2.50;;
9270;SDS011;4673;53.458;9.940;2022-10-01T14:17:07;2.07;;;2.07;;
9270;SDS011;4673;53.458;9.940;2022-10-01T14:19:34;1.77;;;1.77;;
9270;SDS011;4673;53.458;9.940;2022-10-01T14:25:03;1.10;;;1.10;;
9270;SDS011;4673;53.458;9.940;2022-10-01T14:31:19;1.23;;;1.23;;
9270;SDS011;4673;53.458;9.940;2022-10-01T14:36:52;1.20;;;1.20;;
9270;SDS011;4673;53.458;9.940;2022-10-01T14:41:48;1.00;;;1.00;;
9270;SDS011;4673;53.458;9.940;2022-10-01T14:46:54;0.70;;;0.70;;
9270;SDS011;4673;53.458;9.940;2022-10-01T14:49:25;0.67;;;0.67;;
9270;SDS011;4673;53.458;9.940;2022-10-01T14:51:58;1.40;;;1.40;;
9270;SDS011;4673;53.458;9.940;2022-10-01T14:54:28;1.00;;;1.00;;
9270;SDS011;4673;53.458;9.940;2022-10-01T14:57:07;0.90;;;0.90;;
9270;SDS011;4673;53.458;9.940;2022-10-01T14:59:39;1.43;;;1.43;;
9270;SDS011;4673;53.458;9.940;2022-10-01T15:02:18;1.30;;;1.30;;
9270;SDS011;4673;53.458;9.940;2022-10-01T15:04:47;1.10;;;1.10;;
9270;SDS011;4673;53.458;9.940;2022-10-01T15:07:14;1.60;;;1.60;;
9270;SDS011;4673;53.458;9.940;2022-10-01T15:09:41;1.43;;;1.43;;
9270;SDS011;4673;53.458;9.940;2022-10-01T15:12:07;1.63;;;1.63;;
9270;SDS011;4673;53.458;9.940;2022-10-01T15:14:34;1.07;;;1.07;;
9270;SDS011;4673;53.458;9.940;2022-10-01T15:17:01;1.33;;;1.33;;
9270;SDS011;4673;53.458;9.940;2022-10-01T15:19:28;1.53;;;1.53;;
9270;SDS011;4673;53.458;9.940;2022-10-01T15:21:55;1.43;;;1.43;;
9270;SDS011;4673;53.458;9.940;2022-10-01T15:26:52;1.40;;;1.40;;
9270;SDS011;4673;53.458;9.940;2022-10-01T15:29:20;1.93;;;1.93;;
9270;SDS011;4673;53.458;9.940;2022-10-01T15:31:47;1.53;;;1.53;;
9270;SDS011;4673;53.458;9.940;2022-10-01T15:34:15;2.10;;;2.10;;
9270;SDS011;4673;53.458;9.940;2022-10-01T15:36:43;1.80;;;1.80;;
9270;SDS011;4673;53.458;9.940;2022-10-01T15:41:42;1.53;;;1.53;;
9270;SDS011;4673;53.458;9.940;2022-10-01T15:50:02;1.90;;;1.90;;
9270;SDS011;4673;53.458;9.940;2022-10-01T15:52:29;1.40;;;1.40;;
9270;SDS011;4673;53.458;9.940;2022-10-01T15:55:14;1.47;;;1.47;;
9270;SDS011;4673;53.458;9.940;2022-10-01T15:57:56;1.60;;;1.60;;
9270;SDS011;4673;53.458;9.940;2022-10-01T16:00:41;1.53;;;1.53;;
9270;SDS011;4673;53.458;9.940;2022-10-01T16:03:19;1.30;;;1.30;;
9270;SDS011;4673;53.458;9.940;2022-10-01T16:05:48;1.67;;;1.67;;
9270;SDS011;4673;53.458;9.940;2022-10-01T16:08:18;1.97;;;1.97;;
9270;SDS011;4673;53.458;9.940;2022-10-01T16:11:06;1.33;;;1.33;;
9270;SDS011;4673;53.458;9.940;2022-10-01T16:13:33;1.97;;;1.97;;
9270;SDS011;4673;53.458;9.940;2022-10-01T16:18:37;6.10;;;6.10;;
9270;SDS011;4673;53.458;9.940;2022-10-01T16:21:04;4.00;;;4.00;;
9270;SDS011;4673;53.458;9.940;2022-10-01T16:26:27;2.47;;;2.47;;
9270;SDS011;4673;53.458;9.940;2022-10-01T16:28:52;2.20;;;2.20;;
9270;SDS011;4673;53.458;9.940;2022-10-01T16:31:19;2.60;;;2.60;;
9270;SDS011;4673;53.458;9.940;2022-10-01T16:33:45;2.20;;;2.20;;
9270;SDS011;4673;53.458;9.940;2022-10-01T16:36:15;2.20;;;2.20;;
9270;SDS011;4673;53.458;9.940;2022-10-01T16:38:48;1.40;;;1.40;;
9270;SDS011;4673;53.458;9.940;2022-10-01T16:41:16;1.60;;;1.60;;
9270;SDS011;4673;53.458;9.940;2022-10-01T16:43:46;1.83;;;1.83;;
9270;SDS011;4673;53.458;9.940;2022-10-01T16:46:13;1.83;;;1.83;;
9270;SDS011;4673;53.458;9.940;2022-10-01T16:48:39;1.53;;;1.53;;
9270;SDS011;4673;53.458;9.940;2022-10-01T16:51:05;1.17;;;1.17;;
9270;SDS011;4673;53.458;9.940;2022-10-01T16:53:31;1.57;;;1.57;;
9270;SDS011;4673;53.458;9.940;2022-10-01T16:55:56;1.60;;;1.60;;
9270;SDS011;4673;53.458;9.940;2022-10-01T16:58:22;2.10;;;2.10;;
9270;SDS011;4673;53.458;9.940;2022-10-01T17:00:48;1.70;;;1.70;;
9270;SDS011;4673;53.458;9.940;2022-10-01T17:03:15;2.83;;;2.83;;
9270;SDS011;4673;53.458;9.940;2022-10-01T17:05:43;1.77;;;1.77;;
9270;SDS011;4673;53.458;9.940;2022-10-01T17:08:09;2.33;;;2.33;;
9270;SDS011;4673;53.458;9.940;2022-10-01T17:10:36;1.63;;;1.63;;
9270;SDS011;4673;53.458;9.940;2022-10-01T17:13:05;1.97;;;1.97;;
9270;SDS011;4673;53.458;9.940;2022-10-01T17:15:31;1.87;;;1.87;;
9270;SDS011;4673;53.458;9.940;2022-10-01T17:17:57;1.57;;;1.57;;
9270;SDS011;4673;53.458;9.940;2022-10-01T17:20:23;1.67;;;1.67;;
9270;SDS011;4673;53.458;9.940;2022-10-01T17:22:52;2.43;;;2.43;;
9270;SDS011;4673;53.458;9.940;2022-10-01T17:25:20;1.80;;;1.80;;
9270;SDS011;4673;53.458;9.940;2022-10-01T17:27:47;2.70;;;2.70;;
9270;SDS011;4673;53.458;9.940;2022-10-01T17:30:13;1.80;;;1.80;;
9270;SDS011;4673;53.458;9.940;2022-10-01T17:32:39;1.60;;;1.60;;
9270;SDS011;4673;53.458;9.940;2022-10-01T17:35:06;3.00;;;3.00;;
9270;SDS011;4673;53.458;9.940;2022-10-01T17:37:34;2.63;;;2.63;;
9270;SDS011;4673;53.458;9.940;2022-10-01T17:40:00;2.30;;;2.30;;
9270;SDS011;4673;53.458;9.940;2022-10-01T17:42:26;3.23;;;3.13;;
9270;SDS011;4673;53.458;9.940;2022-10-01T17:44:51;2.10;;;2.10;;
9270;SDS011;4673;53.458;9.940;2022-10-01T17:47:18;1.93;;;1.93;;